In Rescue
 
Open Full Screen Window  High Contrast Mode
Wind Gusting 00 knots
08
January 29, 2020 12:10 AM EST
Present Weather: Light Snow
Weather Information
Wind Direction
  360 °
Wind Speed
  08 kt (9 mph)
Wind Gust
  00 kt (0 mph)
Altimeter
29.92 in
Visibility
10 SM
Temperature
-06° C
21° F
Dewpoint
-08° C
18° F
Humidity
86%
Sky Condition
Overcast @ 2,200 ft
Broken @ 1,600 ft
MVFR

METAR KEFK 290510Z AUTO 36008KT 10SM -SN BKN016 OVC022 M06/M08 A2992 RMK AO2 T10601080

FAA Disclaimer: The data displayed is for advisory purposes only and is not to be used for flight planning or operations.